createdAt,value
2018-03-07T00:02:22.839Z,18.60
2018-03-07T00:04:50.671Z,18.50
2018-03-07T00:07:18.461Z,18.50
2018-03-07T00:09:46.195Z,18.40
2018-03-07T00:12:14.005Z,18.30
2018-03-07T00:14:41.740Z,18.30
2018-03-07T00:17:09.590Z,18.30
2018-03-07T00:19:37.424Z,18.30
2018-03-07T00:22:05.181Z,18.20
2018-03-07T00:24:33.048Z,18.10
2018-03-07T00:27:00.826Z,18.00
2018-03-07T00:29:28.564Z,18.00
2018-03-07T00:31:56.441Z,18.10
2018-03-07T00:34:24.237Z,18.10
2018-03-07T00:36:51.939Z,18.00
2018-03-07T00:39:19.668Z,18.00
2018-03-07T00:41:47.455Z,17.90
2018-03-07T00:44:15.232Z,17.90
2018-03-07T00:46:42.965Z,17.80
2018-03-07T00:49:10.759Z,17.80
2018-03-07T00:51:38.502Z,17.80
2018-03-07T00:54:06.253Z,17.90
2018-03-07T00:56:33.973Z,17.90
2018-03-07T00:59:01.753Z,17.90
2018-03-07T01:01:29.533Z,17.90
2018-03-07T01:03:57.283Z,17.80
2018-03-07T01:06:25.054Z,17.80
2018-03-07T01:08:52.922Z,17.80
2018-03-07T01:11:20.733Z,17.90
2018-03-07T01:13:48.523Z,17.90
2018-03-07T01:16:16.264Z,17.80
2018-03-07T01:18:43.972Z,17.80
2018-03-07T01:21:11.743Z,17.80
2018-03-07T01:23:39.464Z,17.70
2018-03-07T01:26:07.190Z,17.70
2018-03-07T01:28:34.979Z,17.70
2018-03-07T01:31:02.763Z,17.70
2018-03-07T01:33:30.490Z,17.60
2018-03-07T01:35:58.314Z,17.60
2018-03-07T01:38:26.062Z,17.70
2018-03-07T01:40:53.857Z,17.70
2018-03-07T01:43:21.643Z,17.70
2018-03-07T01:45:49.350Z,17.70
2018-03-07T01:48:17.129Z,17.80
2018-03-07T01:50:44.902Z,17.80
2018-03-07T01:53:12.636Z,18.10
2018-03-07T01:55:40.425Z,18.40
2018-03-07T01:58:08.148Z,18.30
2018-03-07T02:00:35.893Z,18.10
2018-03-07T02:03:03.694Z,17.90
2018-03-07T02:05:31.518Z,17.80
2018-03-07T02:07:59.497Z,17.80
2018-03-07T02:10:27.240Z,17.70
2018-03-07T02:12:54.984Z,17.70
2018-03-07T02:15:22.709Z,17.60
2018-03-07T02:17:50.517Z,17.50
2018-03-07T02:20:18.236Z,17.50
2018-03-07T02:22:46.733Z,17.40
2018-03-07T02:25:14.521Z,17.40
2018-03-07T02:27:42.338Z,17.40
2018-03-07T02:30:10.314Z,17.30
2018-03-07T02:32:38.129Z,17.30
2018-03-07T02:35:05.874Z,17.20
2018-03-07T02:37:33.646Z,17.20
2018-03-07T02:40:01.403Z,17.20
2018-03-07T02:42:29.115Z,17.40
2018-03-07T02:44:56.819Z,17.30
2018-03-07T02:47:25.253Z,17.30
2018-03-07T02:49:52.930Z,17.30
2018-03-07T02:52:20.614Z,17.00
2018-03-07T02:54:48.359Z,17.20
2018-03-07T02:57:16.076Z,17.20
2018-03-07T02:59:43.743Z,17.40
2018-03-07T03:02:11.475Z,17.50
2018-03-07T03:04:39.148Z,17.50
2018-03-07T03:07:06.820Z,17.40
2018-03-07T03:09:34.596Z,17.30
2018-03-07T03:12:02.367Z,17.20
2018-03-07T03:14:30.065Z,17.30
2018-03-07T03:16:57.741Z,17.20
2018-03-07T03:19:25.418Z,17.30
2018-03-07T03:21:53.131Z,17.30
2018-03-07T03:24:20.797Z,17.10
2018-03-07T03:26:48.512Z,17.20
2018-03-07T03:29:16.235Z,17.20
2018-03-07T03:31:43.960Z,17.10
2018-03-07T03:34:11.617Z,17.10
2018-03-07T03:36:39.426Z,17.30
2018-03-07T03:39:07.241Z,17.50
2018-03-07T03:41:34.980Z,17.30
2018-03-07T03:44:02.705Z,17.20
2018-03-07T03:46:30.436Z,17.10
2018-03-07T03:48:58.145Z,17.00
2018-03-07T03:51:25.880Z,17.00
2018-03-07T03:53:53.661Z,17.00
2018-03-07T03:56:22.169Z,17.30
2018-03-07T03:58:49.901Z,17.30
2018-03-07T04:01:17.629Z,17.20
2018-03-07T04:03:45.449Z,17.20
2018-03-07T04:06:13.263Z,17.00
2018-03-07T04:08:41.049Z,17.00
2018-03-07T04:11:08.787Z,17.00
2018-03-07T04:13:36.530Z,17.10
2018-03-07T04:16:04.312Z,17.00
2018-03-07T04:18:32.028Z,16.90
2018-03-07T04:20:59.756Z,16.90
2018-03-07T04:23:27.537Z,16.80
2018-03-07T04:25:55.264Z,16.70
2018-03-07T04:28:23.035Z,16.80
2018-03-07T04:30:50.876Z,17.40
2018-03-07T04:33:18.663Z,17.30
2018-03-07T04:35:46.393Z,17.10
2018-03-07T04:38:14.107Z,16.70
2018-03-07T04:40:41.899Z,16.70
2018-03-07T04:43:09.901Z,17.00
2018-03-07T04:45:37.717Z,16.80
2018-03-07T04:48:05.532Z,16.70
2018-03-07T04:50:33.260Z,16.80
2018-03-07T04:53:00.979Z,16.90
2018-03-07T04:55:29.605Z,16.80
2018-03-07T04:57:57.333Z,16.80
2018-03-07T05:00:25.107Z,17.10
2018-03-07T05:02:53.081Z,17.10
2018-03-07T05:05:20.862Z,17.20
2018-03-07T05:07:48.640Z,17.10
2018-03-07T05:10:16.417Z,16.90
2018-03-07T05:12:44.196Z,16.80
2018-03-07T05:15:11.934Z,16.90
2018-03-07T05:17:39.708Z,17.10
2018-03-07T05:20:07.485Z,17.10
2018-03-07T05:22:35.316Z,17.70
2018-03-07T05:25:03.088Z,18.10
2018-03-07T05:27:30.855Z,17.60
2018-03-07T05:29:58.621Z,17.30
2018-03-07T05:32:26.594Z,17.20
2018-03-07T05:34:54.480Z,17.10
2018-03-07T05:37:23.142Z,17.50
2018-03-07T05:39:50.865Z,17.50
2018-03-07T05:42:19.279Z,17.50
2018-03-07T05:44:46.991Z,17.30
2018-03-07T05:47:14.738Z,17.20
2018-03-07T05:49:42.474Z,17.20
2018-03-07T05:52:10.242Z,17.30
2018-03-07T05:54:38.223Z,17.40
2018-03-07T05:57:06.748Z,17.60
2018-03-07T05:59:34.561Z,17.50
2018-03-07T06:02:02.490Z,17.60
2018-03-07T06:04:30.204Z,17.60
2018-03-07T06:06:58.198Z,17.70
2018-03-07T06:09:25.922Z,17.70
2018-03-07T06:11:53.694Z,17.80
2018-03-07T06:14:21.527Z,17.90
2018-03-07T06:16:49.299Z,18.00
2018-03-07T06:19:17.355Z,18.00
2018-03-07T06:21:45.498Z,18.00
2018-03-07T06:24:13.363Z,18.10
2018-03-07T06:26:42.373Z,18.10
2018-03-07T06:29:11.093Z,18.00
2018-03-07T06:31:38.829Z,17.90
2018-03-07T06:34:06.596Z,17.90
2018-03-07T06:36:35.138Z,18.10
2018-03-07T06:39:02.923Z,18.10
2018-03-07T06:41:30.700Z,18.30
2018-03-07T06:43:58.433Z,18.50
2018-03-07T06:46:26.225Z,18.60
2018-03-07T06:48:54.720Z,18.50
2018-03-07T06:51:23.298Z,18.60
2018-03-07T06:53:51.157Z,18.50
2018-03-07T06:56:18.930Z,18.70
2018-03-07T06:58:46.811Z,19.10
2018-03-07T07:01:14.586Z,20.70
2018-03-07T07:03:42.481Z,21.00
2018-03-07T07:06:10.368Z,20.50
2018-03-07T07:08:38.285Z,20.00
2018-03-07T07:11:06.007Z,19.60
2018-03-07T07:13:33.753Z,19.30
2018-03-07T07:16:01.535Z,19.10
2018-03-07T07:18:30.067Z,19.10
2018-03-07T07:20:58.881Z,19.40
2018-03-07T07:23:26.661Z,19.30
2018-03-07T07:25:54.413Z,19.50
2018-03-07T07:28:22.292Z,19.50
2018-03-07T07:30:50.146Z,19.50
2018-03-07T07:33:17.889Z,19.50
2018-03-07T07:35:46.444Z,19.10
2018-03-07T07:38:14.168Z,19.10
2018-03-07T07:40:41.951Z,19.10
2018-03-07T07:43:09.685Z,19.30
2018-03-07T07:45:37.493Z,19.30
2018-03-07T07:48:05.226Z,19.30
2018-03-07T07:50:32.948Z,19.30
2018-03-07T07:53:00.721Z,19.30
2018-03-07T07:55:28.651Z,19.50
2018-03-07T07:57:56.389Z,19.70
2018-03-07T08:00:24.123Z,19.60
2018-03-07T08:02:52.871Z,19.40
2018-03-07T08:05:20.596Z,19.40
2018-03-07T08:07:48.414Z,19.30
2018-03-07T08:10:16.154Z,19.30
2018-03-07T08:12:43.939Z,19.20
2018-03-07T08:15:11.714Z,19.30
2018-03-07T08:17:39.769Z,19.40
2018-03-07T08:20:07.568Z,19.50
2018-03-07T08:22:35.316Z,19.50
2018-03-07T08:25:03.197Z,19.50
2018-03-07T08:27:30.934Z,19.50
2018-03-07T08:29:58.717Z,19.50
2018-03-07T08:32:26.496Z,19.50
2018-03-07T08:34:54.227Z,19.50
2018-03-07T08:37:21.954Z,19.50
2018-03-07T08:39:49.986Z,19.60
2018-03-07T08:42:17.699Z,19.60
2018-03-07T08:44:46.448Z,19.80
2018-03-07T08:47:14.208Z,19.80
2018-03-07T08:49:41.943Z,19.90
2018-03-07T08:52:09.700Z,19.90
2018-03-07T08:54:37.426Z,19.80
2018-03-07T08:57:05.206Z,19.70
2018-03-07T08:59:32.940Z,19.60
2018-03-07T09:02:00.789Z,19.50
2018-03-07T09:04:28.499Z,19.40
2018-03-07T09:06:56.282Z,19.40
2018-03-07T09:09:24.294Z,19.40
2018-03-07T09:11:52.063Z,19.30
2018-03-07T09:14:19.846Z,19.30
2018-03-07T09:16:47.598Z,19.30
2018-03-07T09:19:15.310Z,19.30
2018-03-07T09:21:43.086Z,19.30
2018-03-07T09:24:10.898Z,19.50
2018-03-07T09:26:38.693Z,19.60
2018-03-07T09:29:07.182Z,19.70
2018-03-07T09:31:35.198Z,19.70
2018-03-07T09:34:02.925Z,19.60
2018-03-07T09:36:30.694Z,19.60
2018-03-07T09:38:58.464Z,19.80
2018-03-07T09:41:26.249Z,19.70
2018-03-07T09:43:53.979Z,19.80
2018-03-07T09:46:22.056Z,19.80
2018-03-07T09:48:49.795Z,19.90
2018-03-07T09:51:17.516Z,20.00
2018-03-07T09:53:45.291Z,20.10
2018-03-07T09:56:13.044Z,20.20
2018-03-07T09:58:40.781Z,20.40
2018-03-07T10:01:08.920Z,20.40
2018-03-07T10:03:36.690Z,20.50
2018-03-07T10:06:04.487Z,20.40
2018-03-07T10:08:32.260Z,20.40
2018-03-07T10:10:59.999Z,20.30
2018-03-07T10:13:27.754Z,20.20
2018-03-07T10:15:55.472Z,20.40
2018-03-07T10:18:23.203Z,20.50
2018-03-07T10:20:51.862Z,20.70
2018-03-07T10:23:20.356Z,20.70
2018-03-07T10:25:48.068Z,20.60
2018-03-07T10:28:15.792Z,20.50
2018-03-07T10:30:43.556Z,20.30
2018-03-07T10:33:17.634Z,20.30
2018-03-07T10:35:45.363Z,20.20
2018-03-07T10:38:13.092Z,20.40
2018-03-07T10:40:40.853Z,20.40
2018-03-07T10:43:08.951Z,20.10
2018-03-07T10:45:36.730Z,20.30
2018-03-07T10:48:04.474Z,20.50
2018-03-07T10:50:33.048Z,20.40
2018-03-07T10:53:01.545Z,20.20
2018-03-07T10:55:29.309Z,20.20
2018-03-07T10:57:57.035Z,20.10
2018-03-07T11:00:30.278Z,20.40
2018-03-07T11:02:58.005Z,20.60
2018-03-07T11:05:25.716Z,20.80
2018-03-07T11:07:53.427Z,20.90
2018-03-07T11:10:21.207Z,21.00
2018-03-07T11:12:49.003Z,20.80
2018-03-07T11:15:17.497Z,21.70
2018-03-07T11:17:45.271Z,21.70
2018-03-07T11:20:13.036Z,21.60
2018-03-07T11:22:40.820Z,21.60
2018-03-07T11:25:08.553Z,20.90
2018-03-07T11:27:36.316Z,21.10
2018-03-07T11:30:04.926Z,21.20
2018-03-07T11:32:32.720Z,21.10
2018-03-07T11:35:00.481Z,21.20
2018-03-07T11:37:28.255Z,21.10
2018-03-07T11:39:55.999Z,21.20
2018-03-07T11:42:23.749Z,21.70
2018-03-07T11:44:51.557Z,21.90
2018-03-07T11:47:19.351Z,21.70
2018-03-07T11:49:47.891Z,21.60
2018-03-07T11:52:15.655Z,21.50
2018-03-07T11:54:43.370Z,21.60
2018-03-07T11:57:11.147Z,21.50
2018-03-07T11:59:39.004Z,21.40
2018-03-07T12:02:06.762Z,21.60
2018-03-07T12:04:34.477Z,21.50
2018-03-07T12:07:02.521Z,21.50
2018-03-07T12:09:31.058Z,21.30
2018-03-07T12:11:58.801Z,21.30
2018-03-07T12:14:26.603Z,21.20
2018-03-07T12:16:54.339Z,21.20
2018-03-07T12:19:22.061Z,21.30
2018-03-07T12:21:50.132Z,21.30
2018-03-07T12:24:17.892Z,21.30
2018-03-07T12:26:45.637Z,21.40
2018-03-07T12:29:13.468Z,21.40
2018-03-07T12:31:41.229Z,21.30
2018-03-07T12:34:08.952Z,21.40
2018-03-07T12:36:36.982Z,21.40
2018-03-07T12:39:04.856Z,21.40
2018-03-07T12:41:32.613Z,21.30
2018-03-07T12:44:00.349Z,21.40
2018-03-07T12:46:28.149Z,21.60
2018-03-07T12:48:55.872Z,21.70
2018-03-07T12:51:23.775Z,21.70
2018-03-07T12:53:51.556Z,21.80
2018-03-07T12:56:19.276Z,21.80
2018-03-07T12:58:46.991Z,21.90
2018-03-07T13:01:14.753Z,21.90
2018-03-07T13:03:42.529Z,21.90
2018-03-07T13:06:10.380Z,22.00
2018-03-07T13:08:38.137Z,21.90
2018-03-07T13:11:05.929Z,22.00
2018-03-07T13:13:33.720Z,22.10
2018-03-07T13:16:01.501Z,22.10
2018-03-07T13:18:29.212Z,22.00
2018-03-07T13:20:56.939Z,22.00
2018-03-07T13:23:24.676Z,22.10
2018-03-07T13:25:52.461Z,22.10
2018-03-07T13:28:20.455Z,22.10
2018-03-07T13:30:48.223Z,22.40
2018-03-07T13:33:16.005Z,22.40
2018-03-07T13:35:44.030Z,22.40
2018-03-07T13:38:12.001Z,22.40
2018-03-07T13:40:39.801Z,22.40
2018-03-07T13:43:08.345Z,22.40
2018-03-07T13:45:36.143Z,22.40
2018-03-07T13:48:03.869Z,22.50
2018-03-07T13:50:31.715Z,22.90
2018-03-07T13:53:00.125Z,23.20
2018-03-07T13:55:28.772Z,23.40
2018-03-07T13:57:56.564Z,23.30
2018-03-07T14:00:24.385Z,23.20
2018-03-07T14:02:52.136Z,23.30
2018-03-07T14:05:23.478Z,23.20
2018-03-07T14:07:52.671Z,23.30
2018-03-07T14:10:20.442Z,23.50
2018-03-07T14:12:48.250Z,23.80
2018-03-07T14:15:16.922Z,24.00
2018-03-07T14:17:46.259Z,24.00
2018-03-07T14:20:14.002Z,23.90
2018-03-07T14:22:42.517Z,24.00
2018-03-07T14:25:10.346Z,24.00
2018-03-07T14:27:38.240Z,24.20
2018-03-07T14:30:06.035Z,24.30
2018-03-07T14:32:33.798Z,24.30
2018-03-07T14:35:01.519Z,24.40
2018-03-07T14:37:29.640Z,24.40
2018-03-07T14:39:57.460Z,24.30
2018-03-07T14:42:26.037Z,24.40
2018-03-07T14:44:53.780Z,24.30
2018-03-07T14:47:30.329Z,24.40
2018-03-07T14:49:58.084Z,24.50
2018-03-07T14:52:25.849Z,24.30
2018-03-07T14:54:53.724Z,24.00
2018-03-07T14:57:21.699Z,24.10
2018-03-07T14:59:49.433Z,24.30
2018-03-07T15:02:18.009Z,24.40
2018-03-07T15:04:45.752Z,24.40
2018-03-07T15:07:13.493Z,24.40
2018-03-07T15:09:41.541Z,24.50
2018-03-07T15:12:09.346Z,24.60
2018-03-07T15:14:37.095Z,24.90
2018-03-07T15:17:04.927Z,24.80
2018-03-07T15:19:32.869Z,24.70
2018-03-07T15:22:00.589Z,24.60
2018-03-07T15:24:28.345Z,24.20
2018-03-07T15:26:56.130Z,24.10
2018-03-07T15:29:23.988Z,24.00
2018-03-07T15:31:51.710Z,23.70
2018-03-07T15:34:19.537Z,23.60
2018-03-07T15:36:47.314Z,23.40
2018-03-07T15:39:15.046Z,23.50
2018-03-07T15:41:42.779Z,23.30
2018-03-07T15:44:10.500Z,23.20
2018-03-07T15:46:38.228Z,23.20
2018-03-07T15:49:06.802Z,23.30
2018-03-07T15:51:34.539Z,23.30
2018-03-07T15:54:02.311Z,23.20
2018-03-07T15:56:30.091Z,23.20
2018-03-07T15:58:57.818Z,22.90
2018-03-07T16:01:25.538Z,22.60
2018-03-07T16:03:53.262Z,22.50
2018-03-07T16:06:20.984Z,22.50
2018-03-07T16:08:49.461Z,22.00
2018-03-07T16:11:17.259Z,22.00
2018-03-07T16:13:45.085Z,21.90
2018-03-07T16:16:12.861Z,21.70
2018-03-07T16:18:40.600Z,21.40
2018-03-07T16:21:08.382Z,21.10
2018-03-07T16:23:40.180Z,20.80
2018-03-07T16:26:07.928Z,20.40
2018-03-07T16:28:38.219Z,20.30
2018-03-07T16:31:06.026Z,20.40
2018-03-07T16:33:34.563Z,19.80
2018-03-07T16:36:02.340Z,19.70
2018-03-07T16:38:30.233Z,19.60
2018-03-07T16:41:01.416Z,20.30
2018-03-07T16:43:29.256Z,20.20
2018-03-07T16:45:57.031Z,20.30
2018-03-07T16:48:24.904Z,20.30
2018-03-07T16:50:52.746Z,20.60
2018-03-07T16:53:20.740Z,19.70
2018-03-07T16:55:49.115Z,19.40
2018-03-07T16:58:16.861Z,19.90
2018-03-07T17:00:44.579Z,19.40
2018-03-07T17:03:12.375Z,19.30
2018-03-07T17:05:40.216Z,19.30
2018-03-07T17:08:08.764Z,19.00
2018-03-07T17:10:36.547Z,18.90
2018-03-07T17:13:07.925Z,18.80
2018-03-07T17:15:40.042Z,19.00
2018-03-07T17:18:09.395Z,19.00
2018-03-07T17:20:37.466Z,19.00
2018-03-07T17:23:05.282Z,19.20
2018-03-07T17:25:33.523Z,19.50
2018-03-07T17:28:01.353Z,19.30
2018-03-07T17:30:30.982Z,19.40
2018-03-07T17:32:58.760Z,19.80
2018-03-07T17:35:26.702Z,20.00
2018-03-07T17:37:55.405Z,19.70
2018-03-07T17:40:24.240Z,19.80
2018-03-07T17:42:52.239Z,20.10
2018-03-07T17:45:20.958Z,20.20
2018-03-07T17:47:48.768Z,20.20
2018-03-07T17:50:16.495Z,20.30
2018-03-07T17:52:44.252Z,20.10
2018-03-07T17:55:12.006Z,19.80
2018-03-07T17:57:39.732Z,19.90
2018-03-07T18:00:07.618Z,19.90
2018-03-07T18:02:35.374Z,19.90
2018-03-07T18:05:03.669Z,19.70
2018-03-07T18:07:40.882Z,19.60
2018-03-07T18:10:09.009Z,19.60
2018-03-07T18:12:37.213Z,19.40
2018-03-07T18:15:05.007Z,19.50
2018-03-07T18:17:34.750Z,19.40
2018-03-07T18:20:04.077Z,19.50
2018-03-07T18:22:32.342Z,19.70
2018-03-07T18:25:00.160Z,19.60
2018-03-07T18:27:28.014Z,19.60
2018-03-07T18:29:56.522Z,19.60
2018-03-07T18:32:24.302Z,19.50
2018-03-07T18:34:52.229Z,19.50
2018-03-07T18:37:20.812Z,19.10
2018-03-07T18:39:50.481Z,19.00
2018-03-07T18:42:19.468Z,19.00
2018-03-07T18:44:48.066Z,19.00
2018-03-07T18:47:15.878Z,18.70
2018-03-07T18:49:52.850Z,18.80
2018-03-07T18:52:22.122Z,18.70
2018-03-07T18:54:50.552Z,18.70
2018-03-07T18:57:18.491Z,18.60
2018-03-07T18:59:49.089Z,18.60
2018-03-07T19:02:18.674Z,18.70
2018-03-07T19:04:49.682Z,18.60
2018-03-07T19:07:18.579Z,18.60
2018-03-07T19:09:50.496Z,18.80
2018-03-07T19:12:20.869Z,19.20
2018-03-07T19:14:48.676Z,18.90
2018-03-07T19:17:16.414Z,18.80
2018-03-07T19:19:48.193Z,18.40
2018-03-07T19:22:16.740Z,18.40
2018-03-07T19:24:44.610Z,18.40
2018-03-07T19:27:12.398Z,18.20
2018-03-07T19:29:40.116Z,18.30
2018-03-07T19:32:07.886Z,18.60
2018-03-07T19:34:35.847Z,18.60
2018-03-07T19:37:03.874Z,18.70
2018-03-07T19:39:31.665Z,18.80
2018-03-07T19:41:59.399Z,18.40
2018-03-07T19:44:27.114Z,18.30
2018-03-07T19:46:54.966Z,18.10
2018-03-07T19:49:22.759Z,18.50
2018-03-07T19:51:50.540Z,18.50
2018-03-07T19:54:18.326Z,18.50
2018-03-07T19:56:46.096Z,18.40
2018-03-07T19:59:13.886Z,18.40
2018-03-07T20:01:42.424Z,18.60
2018-03-07T20:04:10.490Z,18.50
2018-03-07T20:06:39.609Z,18.50
2018-03-07T20:09:09.902Z,18.20
2018-03-07T20:11:38.014Z,18.10
2018-03-07T20:14:46.407Z,18.30
2018-03-07T20:17:16.149Z,18.30
2018-03-07T20:19:44.551Z,18.20
2018-03-07T20:22:13.095Z,17.50
2018-03-07T20:24:40.873Z,17.50
2018-03-07T20:27:11.740Z,17.20
2018-03-07T20:29:42.781Z,17.50
2018-03-07T20:32:11.933Z,17.70
2018-03-07T20:34:42.445Z,17.90
2018-03-07T20:37:10.361Z,18.10
2018-03-07T20:39:38.219Z,17.90
2018-03-07T20:42:05.944Z,18.10
2018-03-07T20:44:33.965Z,18.30
2018-03-07T20:47:05.771Z,18.30
2018-03-07T20:49:33.679Z,18.40
2018-03-07T20:52:01.489Z,18.40
2018-03-07T20:54:30.260Z,18.30
2018-03-07T20:56:58.050Z,18.00
2018-03-07T20:59:25.781Z,18.00
2018-03-07T21:01:54.314Z,17.80
2018-03-07T21:04:22.958Z,18.10
2018-03-07T21:06:50.765Z,18.00
2018-03-07T21:09:19.420Z,18.20
2018-03-07T21:11:47.262Z,18.10
2018-03-07T21:14:15.038Z,18.10
2018-03-07T21:16:42.768Z,18.20
2018-03-07T21:19:11.339Z,18.40
2018-03-07T21:21:39.118Z,18.30
2018-03-07T21:24:06.854Z,18.40
2018-03-07T21:26:34.690Z,18.40
2018-03-07T21:29:02.713Z,18.20
2018-03-07T21:31:30.445Z,18.10
2018-03-07T21:33:58.320Z,18.20
2018-03-07T21:36:26.043Z,18.40
2018-03-07T21:38:53.773Z,18.50
2018-03-07T21:41:21.559Z,18.70
2018-03-07T21:43:49.290Z,18.60
2018-03-07T21:46:17.009Z,18.70
2018-03-07T21:48:44.815Z,18.80
2018-03-07T21:51:12.594Z,18.70
2018-03-07T21:53:40.381Z,18.80
2018-03-07T21:56:08.132Z,18.90
2018-03-07T21:58:35.867Z,18.90
2018-03-07T22:01:03.633Z,18.90
2018-03-07T22:03:31.503Z,18.70
2018-03-07T22:05:59.257Z,18.60
2018-03-07T22:08:26.985Z,18.50
2018-03-07T22:10:54.740Z,18.70
2018-03-07T22:13:22.671Z,18.70
2018-03-07T22:15:50.508Z,18.50
2018-03-07T22:18:18.592Z,18.60
2018-03-07T22:20:46.355Z,18.40
2018-03-07T22:23:14.090Z,18.60
2018-03-07T22:25:41.926Z,18.60
2018-03-07T22:28:09.695Z,18.70
2018-03-07T22:30:37.539Z,18.70
2018-03-07T22:33:05.264Z,18.80
2018-03-07T22:35:33.041Z,18.70
2018-03-07T22:38:00.760Z,18.70
2018-03-07T22:40:28.506Z,18.70
2018-03-07T22:42:56.305Z,18.70
2018-03-07T22:45:24.033Z,18.70
2018-03-07T22:47:51.863Z,18.70
2018-03-07T22:50:19.648Z,18.70
2018-03-07T22:52:47.568Z,18.80
2018-03-07T22:55:15.389Z,18.60
2018-03-07T22:57:43.123Z,18.50
2018-03-07T23:00:25.371Z,18.50
2018-03-07T23:02:53.111Z,18.10
2018-03-07T23:05:20.896Z,17.70
2018-03-07T23:07:48.724Z,17.50
2018-03-07T23:10:16.449Z,17.30
2018-03-07T23:12:44.222Z,17.30
2018-03-07T23:15:12.067Z,17.10
2018-03-07T23:17:39.828Z,16.90
2018-03-07T23:20:07.568Z,16.70
2018-03-07T23:22:35.411Z,16.80
2018-03-07T23:25:03.216Z,16.80
2018-03-07T23:27:31.787Z,17.10
2018-03-07T23:29:59.623Z,17.10
2018-03-07T23:32:27.382Z,17.30
2018-03-07T23:34:55.235Z,17.50
2018-03-07T23:37:23.022Z,17.70
2018-03-07T23:39:50.761Z,17.90
2018-03-07T23:42:18.553Z,17.70
2018-03-07T23:44:46.329Z,17.50
2018-03-07T23:49:47.999Z,17.50
2018-03-07T23:52:15.732Z,17.60
2018-03-07T23:54:43.475Z,17.60
2018-03-07T23:57:12.037Z,17.70
2018-03-07T23:59:39.836Z,17.70
